createdAt,value
2018-12-31T00:00:00.235Z,4.14
2018-12-31T00:02:27.199Z,4.14
2018-12-31T00:04:54.172Z,4.15
2018-12-31T00:07:21.169Z,4.12
2018-12-31T00:09:48.713Z,3.98
2018-12-31T00:12:15.652Z,3.77
2018-12-31T00:14:42.582Z,3.64
2018-12-31T00:17:09.551Z,3.59
2018-12-31T00:19:36.487Z,3.49
2018-12-31T00:22:03.504Z,3.51
2018-12-31T00:24:30.481Z,3.43
2018-12-31T00:26:57.879Z,3.41
2018-12-31T00:29:25.291Z,3.52
2018-12-31T00:31:52.750Z,3.59
2018-12-31T00:34:20.137Z,3.62
2018-12-31T00:36:47.545Z,3.63
2018-12-31T00:39:14.939Z,3.67
2018-12-31T00:41:42.360Z,3.75
2018-12-31T00:44:09.841Z,3.78
2018-12-31T00:46:37.236Z,3.83
2018-12-31T00:49:04.633Z,3.78
2018-12-31T00:51:32.053Z,3.77
2018-12-31T00:53:59.451Z,3.74
2018-12-31T00:56:26.915Z,3.72
2018-12-31T00:58:54.313Z,3.73
2018-12-31T01:01:21.706Z,3.66
2018-12-31T01:03:49.115Z,3.58
2018-12-31T01:06:17.092Z,3.56
2018-12-31T01:08:44.505Z,3.56
2018-12-31T01:11:11.916Z,3.56
2018-12-31T01:13:39.317Z,3.62
2018-12-31T01:16:06.724Z,3.68
2018-12-31T01:18:34.121Z,3.77
2018-12-31T01:21:01.525Z,3.82
2018-12-31T01:23:28.920Z,3.83
2018-12-31T01:25:56.370Z,3.77
2018-12-31T01:28:23.779Z,3.71
2018-12-31T01:30:51.187Z,3.69
2018-12-31T01:33:18.601Z,3.69
2018-12-31T01:35:45.999Z,3.69
2018-12-31T01:38:13.572Z,3.65
2018-12-31T01:40:40.981Z,3.58
2018-12-31T01:43:08.601Z,3.58
2018-12-31T01:45:36.209Z,3.58
2018-12-31T01:48:03.651Z,3.60
2018-12-31T01:50:31.063Z,3.65
2018-12-31T01:52:58.479Z,3.63
2018-12-31T01:55:25.892Z,3.62
2018-12-31T01:57:53.279Z,3.65
2018-12-31T02:00:20.695Z,3.69
2018-12-31T02:02:48.264Z,3.65
2018-12-31T02:05:15.658Z,3.64
2018-12-31T02:07:43.073Z,3.64
2018-12-31T02:10:10.471Z,3.62
2018-12-31T02:12:37.889Z,3.53
2018-12-31T02:15:05.308Z,3.55
2018-12-31T02:17:32.702Z,3.56
2018-12-31T02:20:00.170Z,3.53
2018-12-31T02:22:27.655Z,3.51
2018-12-31T02:24:55.056Z,3.56
2018-12-31T02:27:22.463Z,3.59
2018-12-31T02:29:49.893Z,3.58
2018-12-31T02:32:17.294Z,3.49
2018-12-31T02:34:44.688Z,3.28
2018-12-31T02:37:12.083Z,3.16
2018-12-31T02:39:39.524Z,3.20
2018-12-31T02:42:06.920Z,3.29
2018-12-31T02:44:34.326Z,3.34
2018-12-31T02:47:01.882Z,3.35
2018-12-31T02:49:29.366Z,3.29
2018-12-31T02:51:56.776Z,3.27
2018-12-31T02:54:24.193Z,3.30
2018-12-31T02:56:51.610Z,3.30
2018-12-31T02:59:19.000Z,3.28
2018-12-31T03:01:46.429Z,3.28
2018-12-31T03:04:13.841Z,3.26
2018-12-31T03:06:41.246Z,3.23
2018-12-31T03:09:08.650Z,3.23
2018-12-31T03:11:36.458Z,3.22
2018-12-31T03:14:04.529Z,3.13
2018-12-31T03:16:31.925Z,3.07
2018-12-31T03:18:59.374Z,3.05
2018-12-31T03:21:26.780Z,3.03
2018-12-31T03:23:54.455Z,3.07
2018-12-31T03:26:21.868Z,3.09
2018-12-31T03:28:49.267Z,3.10
2018-12-31T03:31:16.683Z,3.13
2018-12-31T03:33:44.094Z,3.14
2018-12-31T03:36:11.487Z,3.20
2018-12-31T03:38:38.445Z,3.23
2018-12-31T03:41:05.394Z,3.27
2018-12-31T03:43:33.258Z,3.30
2018-12-31T03:46:00.250Z,3.23
2018-12-31T03:48:28.299Z,3.20
2018-12-31T03:50:55.726Z,3.19
2018-12-31T03:53:22.707Z,3.13
2018-12-31T03:55:50.397Z,3.09
2018-12-31T03:58:17.521Z,3.12
2018-12-31T04:00:44.521Z,3.12
2018-12-31T04:03:11.954Z,3.12
2018-12-31T04:05:39.363Z,3.07
2018-12-31T04:08:06.760Z,3.03
2018-12-31T04:10:34.209Z,3.02
2018-12-31T04:13:01.619Z,2.94
2018-12-31T04:15:29.055Z,2.93
2018-12-31T04:17:56.021Z,2.99
2018-12-31T04:20:23.452Z,2.96
2018-12-31T04:22:50.837Z,2.92
2018-12-31T04:25:18.246Z,2.92
2018-12-31T04:27:45.641Z,2.85
2018-12-31T04:30:14.634Z,2.87
2018-12-31T04:32:42.068Z,2.95
2018-12-31T04:35:09.130Z,2.92
2018-12-31T04:37:36.075Z,2.94
2018-12-31T04:40:03.058Z,3.02
2018-12-31T04:42:30.020Z,3.04
2018-12-31T04:44:57.111Z,3.03
2018-12-31T04:47:24.528Z,2.98
2018-12-31T04:52:20.321Z,3.00
2018-12-31T04:54:47.372Z,2.99
2018-12-31T04:57:14.920Z,2.95
2018-12-31T04:59:41.887Z,2.85
2018-12-31T05:02:08.980Z,2.73
2018-12-31T05:04:36.026Z,2.63
2018-12-31T05:07:03.424Z,2.40
2018-12-31T05:09:30.851Z,2.37
2018-12-31T05:11:58.243Z,2.46
2018-12-31T05:14:25.648Z,2.62
2018-12-31T05:16:53.310Z,2.74
2018-12-31T05:19:20.735Z,2.80
2018-12-31T05:21:48.137Z,2.79
2018-12-31T05:24:15.550Z,2.82
2018-12-31T05:26:43.031Z,2.82
2018-12-31T05:29:10.443Z,2.71
2018-12-31T05:31:37.850Z,2.70
2018-12-31T05:34:05.303Z,2.70
2018-12-31T05:36:33.372Z,2.70
2018-12-31T05:39:00.780Z,2.63
2018-12-31T05:41:28.195Z,2.65
2018-12-31T05:43:55.591Z,2.60
2018-12-31T05:46:23.024Z,2.58
2018-12-31T05:48:50.436Z,2.42
2018-12-31T05:51:17.840Z,2.33
2018-12-31T05:53:45.383Z,2.44
2018-12-31T05:56:12.779Z,2.46
2018-12-31T05:58:40.191Z,2.56
2018-12-31T06:01:07.586Z,2.57
2018-12-31T06:03:34.998Z,2.59
2018-12-31T06:06:02.455Z,2.62
2018-12-31T06:08:29.829Z,2.69
2018-12-31T06:10:57.257Z,2.63
2018-12-31T06:15:58.631Z,2.64
2018-12-31T06:18:26.050Z,2.67
2018-12-31T06:20:53.441Z,2.67
2018-12-31T06:23:21.797Z,2.69
2018-12-31T06:25:49.220Z,2.75
2018-12-31T06:28:16.620Z,2.73
2018-12-31T06:30:44.023Z,2.69
2018-12-31T06:33:11.429Z,2.72
2018-12-31T06:35:38.847Z,2.69
2018-12-31T06:38:06.362Z,2.63
2018-12-31T06:40:33.961Z,2.61
2018-12-31T06:43:01.440Z,2.59
2018-12-31T06:45:28.831Z,2.61
2018-12-31T06:47:56.229Z,2.57
2018-12-31T06:50:23.700Z,2.51
2018-12-31T06:52:51.101Z,2.47
2018-12-31T06:55:18.495Z,2.52
2018-12-31T06:57:45.883Z,2.54
2018-12-31T07:00:13.494Z,2.51
2018-12-31T07:02:40.891Z,2.38
2018-12-31T07:05:08.323Z,2.29
2018-12-31T07:07:35.727Z,2.31
2018-12-31T07:10:03.143Z,2.33
2018-12-31T07:12:30.546Z,2.27
2018-12-31T07:14:58.012Z,2.22
2018-12-31T07:17:25.458Z,2.21
2018-12-31T07:19:52.872Z,2.29
2018-12-31T07:22:20.327Z,2.40
2018-12-31T07:24:47.703Z,2.37
2018-12-31T07:27:15.103Z,2.27
2018-12-31T07:29:42.559Z,2.27
2018-12-31T07:32:10.069Z,2.30
2018-12-31T07:34:37.471Z,2.35
2018-12-31T07:37:05.142Z,2.39
2018-12-31T07:39:32.568Z,2.45
2018-12-31T07:41:59.976Z,2.57
2018-12-31T07:44:27.411Z,2.67
2018-12-31T07:46:54.883Z,2.77
2018-12-31T07:49:23.053Z,2.82
2018-12-31T07:51:50.499Z,2.89
2018-12-31T07:54:17.953Z,2.92
2018-12-31T07:56:45.363Z,2.89
2018-12-31T07:59:12.768Z,2.79
2018-12-31T08:01:40.187Z,2.72
2018-12-31T08:04:07.615Z,2.57
2018-12-31T08:06:35.033Z,2.47
2018-12-31T08:09:03.182Z,2.62
2018-12-31T08:11:31.505Z,2.78
2018-12-31T08:13:58.908Z,2.80
2018-12-31T08:16:26.309Z,2.69
2018-12-31T08:18:53.752Z,2.75
2018-12-31T08:21:21.190Z,2.91
2018-12-31T08:23:48.601Z,3.16
2018-12-31T08:26:15.993Z,3.32
2018-12-31T08:28:43.458Z,3.46
2018-12-31T08:31:10.865Z,3.64
2018-12-31T08:33:38.306Z,3.91
2018-12-31T08:36:05.723Z,4.02
2018-12-31T08:38:33.171Z,3.84
2018-12-31T08:41:00.580Z,3.91
2018-12-31T08:43:28.443Z,4.04
2018-12-31T08:45:55.851Z,4.57
2018-12-31T08:48:23.255Z,5.02
2018-12-31T08:50:50.723Z,5.71
2018-12-31T08:53:18.176Z,6.43
2018-12-31T08:55:45.585Z,7.47
2018-12-31T08:58:13.084Z,8.23
2018-12-31T09:00:40.490Z,8.71
2018-12-31T09:03:07.912Z,9.02
2018-12-31T09:05:35.415Z,8.70
2018-12-31T09:08:02.812Z,7.86
2018-12-31T09:10:30.232Z,7.24
2018-12-31T09:12:57.678Z,6.91
2018-12-31T09:15:25.080Z,6.67
2018-12-31T09:17:52.085Z,6.51
2018-12-31T09:20:19.120Z,6.31
2018-12-31T09:22:46.101Z,6.18
2018-12-31T09:25:13.941Z,6.11
2018-12-31T09:30:13.406Z,5.70
2018-12-31T09:32:40.548Z,5.49
2018-12-31T09:35:08.286Z,5.30
2018-12-31T09:37:35.881Z,5.12
2018-12-31T09:40:04.087Z,5.05
2018-12-31T09:42:31.500Z,5.17
2018-12-31T09:44:58.901Z,5.27
2018-12-31T09:47:26.352Z,5.48
2018-12-31T09:49:53.759Z,6.15
2018-12-31T09:52:21.584Z,6.56
2018-12-31T09:54:48.991Z,6.91
2018-12-31T09:57:15.939Z,7.80
2018-12-31T09:59:43.395Z,8.36
2018-12-31T10:02:10.809Z,9.17
2018-12-31T10:04:38.212Z,9.79
2018-12-31T10:07:05.153Z,10.61
2018-12-31T10:09:32.098Z,11.58
2018-12-31T10:11:59.042Z,13.00
2018-12-31T10:14:26.109Z,14.13
2018-12-31T10:16:53.063Z,15.15
2018-12-31T10:19:20.194Z,15.36
2018-12-31T10:21:47.128Z,16.01
2018-12-31T10:24:14.128Z,16.33
2018-12-31T10:26:41.097Z,16.77
2018-12-31T10:29:08.058Z,16.90
2018-12-31T10:31:35.034Z,16.51
2018-12-31T10:34:01.987Z,16.55
2018-12-31T10:36:28.968Z,17.01
2018-12-31T10:38:56.653Z,17.35
2018-12-31T10:41:23.649Z,17.93
2018-12-31T10:43:51.063Z,18.26
2018-12-31T10:46:18.476Z,18.15
2018-12-31T10:48:45.886Z,17.82
2018-12-31T10:51:13.299Z,17.57
2018-12-31T10:53:40.877Z,17.27
2018-12-31T10:56:08.367Z,17.40
2018-12-31T10:58:36.147Z,17.77
2018-12-31T11:01:03.633Z,17.92
2018-12-31T11:03:31.093Z,18.42
2018-12-31T11:05:58.623Z,18.83
2018-12-31T11:08:26.573Z,18.82
2018-12-31T11:10:53.987Z,18.02
2018-12-31T11:13:21.425Z,16.88
2018-12-31T11:15:48.839Z,15.76
2018-12-31T11:18:16.247Z,14.64
2018-12-31T11:20:43.896Z,13.79
2018-12-31T11:23:10.851Z,13.30
2018-12-31T11:25:37.921Z,13.28
2018-12-31T11:28:04.870Z,14.28
2018-12-31T11:30:31.854Z,13.98
2018-12-31T11:32:58.800Z,13.45
2018-12-31T11:35:25.850Z,14.63
2018-12-31T11:37:52.840Z,16.12
2018-12-31T11:40:19.831Z,14.97
2018-12-31T11:42:46.803Z,13.68
2018-12-31T11:45:13.809Z,15.46
2018-12-31T11:47:40.782Z,16.74
2018-12-31T11:50:07.855Z,17.90
2018-12-31T11:52:34.796Z,19.05
2018-12-31T11:55:03.469Z,19.32
2018-12-31T11:57:28.820Z,18.22
2018-12-31T11:59:57.515Z,16.12
2018-12-31T12:02:24.559Z,14.62
2018-12-31T12:04:52.004Z,13.90
2018-12-31T12:07:19.229Z,14.64
2018-12-31T12:11:15.495Z,16.18
2018-12-31T12:13:42.467Z,16.15
2018-12-31T12:16:09.623Z,15.44
2018-12-31T12:18:36.698Z,15.21
2018-12-31T12:21:04.114Z,15.23
2018-12-31T12:23:31.758Z,15.95
2018-12-31T12:25:59.187Z,17.12
2018-12-31T12:28:26.605Z,18.46
2018-12-31T12:30:54.020Z,18.72
2018-12-31T12:33:21.426Z,19.24
2018-12-31T12:35:48.833Z,19.77
2018-12-31T12:38:15.834Z,18.34
2018-12-31T12:40:42.794Z,16.83
2018-12-31T12:43:10.246Z,15.94
2018-12-31T12:45:37.658Z,16.88
2018-12-31T12:48:05.288Z,16.70
2018-12-31T12:50:32.714Z,16.97
2018-12-31T12:53:00.136Z,16.43
2018-12-31T12:55:27.557Z,16.60
2018-12-31T12:57:55.966Z,17.54
2018-12-31T13:00:23.703Z,19.24
2018-12-31T13:02:52.724Z,20.62
2018-12-31T13:05:20.270Z,19.92
2018-12-31T13:07:49.140Z,19.74
2018-12-31T13:10:17.449Z,18.49
2018-12-31T13:12:44.737Z,18.64
2018-12-31T13:15:11.841Z,20.49
2018-12-31T13:17:39.424Z,22.40
2018-12-31T13:20:06.965Z,23.66
2018-12-31T13:22:34.574Z,23.98
2018-12-31T13:25:02.047Z,24.21
2018-12-31T13:27:29.923Z,24.33
2018-12-31T13:29:57.396Z,23.94
2018-12-31T13:32:24.959Z,24.23
2018-12-31T13:34:52.549Z,23.35
2018-12-31T13:37:20.079Z,19.58
2018-12-31T13:39:49.142Z,17.08
2018-12-31T13:42:17.940Z,15.68
2018-12-31T13:44:45.510Z,14.64
2018-12-31T13:47:13.151Z,13.65
2018-12-31T13:49:40.623Z,13.13
2018-12-31T13:52:08.271Z,12.70
2018-12-31T13:54:35.762Z,12.50
2018-12-31T13:57:03.315Z,12.23
2018-12-31T13:59:30.833Z,12.03
2018-12-31T14:01:58.423Z,12.04
2018-12-31T14:04:29.056Z,11.72
2018-12-31T14:06:56.720Z,11.58
2018-12-31T14:09:24.301Z,11.34
2018-12-31T14:11:52.878Z,11.24
2018-12-31T14:14:21.622Z,11.17
2018-12-31T14:16:49.137Z,11.08
2018-12-31T14:19:17.010Z,11.01
2018-12-31T14:21:44.548Z,11.13
2018-12-31T14:24:12.283Z,11.04
2018-12-31T14:26:39.816Z,10.84
2018-12-31T14:29:10.551Z,10.71
2018-12-31T14:31:38.046Z,10.58
2018-12-31T14:34:05.602Z,10.45
2018-12-31T14:36:33.817Z,10.36
2018-12-31T14:39:01.446Z,10.24
2018-12-31T14:41:29.043Z,10.14
2018-12-31T14:43:56.461Z,10.15
2018-12-31T14:46:24.125Z,10.13
2018-12-31T14:48:51.609Z,10.11
2018-12-31T14:51:19.343Z,10.04
2018-12-31T14:53:46.998Z,10.04
2018-12-31T14:56:14.507Z,10.01
2018-12-31T14:58:42.327Z,9.95
2018-12-31T15:01:09.758Z,9.91
2018-12-31T15:03:37.325Z,9.94
2018-12-31T15:06:04.807Z,9.93
2018-12-31T15:08:32.399Z,9.92
2018-12-31T15:10:59.921Z,9.96
2018-12-31T15:16:00.497Z,10.05
2018-12-31T15:18:29.335Z,10.02
2018-12-31T15:20:56.923Z,10.02
2018-12-31T15:23:24.961Z,10.01
2018-12-31T15:25:52.620Z,10.00
2018-12-31T15:28:20.119Z,9.91
2018-12-31T15:30:47.617Z,9.81
2018-12-31T15:33:15.246Z,9.72
2018-12-31T15:35:42.797Z,9.77
2018-12-31T15:38:10.317Z,9.71
2018-12-31T15:40:38.094Z,9.62
2018-12-31T15:43:05.691Z,9.54
2018-12-31T15:45:33.358Z,9.52
2018-12-31T15:48:01.222Z,9.43
2018-12-31T15:50:28.721Z,9.36
2018-12-31T15:52:56.238Z,9.31
2018-12-31T15:55:23.801Z,9.27
2018-12-31T15:57:51.286Z,9.25
2018-12-31T16:00:18.896Z,9.29
2018-12-31T16:02:46.369Z,9.23
2018-12-31T16:05:13.994Z,9.17
2018-12-31T16:07:45.744Z,9.14
2018-12-31T16:10:09.831Z,9.15
2018-12-31T16:12:37.341Z,9.13
2018-12-31T16:15:04.788Z,9.07
2018-12-31T16:17:33.038Z,9.07
2018-12-31T16:20:00.915Z,9.05
2018-12-31T16:22:28.672Z,9.06
2018-12-31T16:24:59.239Z,9.04
2018-12-31T16:27:26.715Z,9.06
2018-12-31T16:29:54.160Z,9.02
2018-12-31T16:32:21.810Z,8.99
2018-12-31T16:34:49.382Z,9.01
2018-12-31T16:37:17.009Z,8.94
2018-12-31T16:39:44.478Z,8.92
2018-12-31T16:42:11.943Z,8.92
2018-12-31T16:44:39.489Z,8.92
2018-12-31T16:47:07.076Z,8.88
2018-12-31T16:49:34.640Z,8.78
2018-12-31T16:52:02.723Z,8.71
2018-12-31T16:54:30.429Z,8.68
2018-12-31T16:56:57.926Z,8.64
2018-12-31T16:59:25.493Z,8.64
2018-12-31T17:01:52.965Z,8.62
2018-12-31T17:04:20.573Z,8.60
2018-12-31T17:06:48.128Z,8.58
2018-12-31T17:09:15.619Z,8.56
2018-12-31T17:11:43.842Z,8.57
2018-12-31T17:14:11.404Z,8.52
2018-12-31T17:16:39.910Z,8.50
2018-12-31T17:19:07.471Z,8.48
2018-12-31T17:21:35.643Z,8.47
2018-12-31T17:24:03.154Z,8.46
2018-12-31T17:26:30.697Z,8.52
2018-12-31T17:28:58.251Z,8.55
2018-12-31T17:31:25.880Z,8.54
2018-12-31T17:33:54.464Z,8.50
2018-12-31T17:36:21.999Z,8.46
2018-12-31T17:38:50.978Z,8.44
2018-12-31T17:41:19.491Z,8.40
2018-12-31T17:43:47.153Z,8.40
2018-12-31T17:46:15.738Z,8.37
2018-12-31T17:48:43.352Z,8.32
2018-12-31T17:51:12.939Z,8.25
2018-12-31T17:53:41.099Z,8.17
2018-12-31T17:56:09.346Z,8.07
2018-12-31T17:58:37.868Z,8.02
2018-12-31T18:01:05.384Z,7.95
2018-12-31T18:03:33.093Z,7.93
2018-12-31T18:06:01.787Z,7.89
2018-12-31T18:08:29.376Z,7.86
2018-12-31T18:10:57.056Z,7.85
2018-12-31T18:13:27.546Z,7.79
2018-12-31T18:15:55.041Z,7.75
2018-12-31T18:18:23.409Z,7.72
2018-12-31T18:20:51.941Z,7.64
2018-12-31T18:23:20.614Z,7.59
2018-12-31T18:25:48.084Z,7.58
2018-12-31T18:28:15.557Z,7.49
2018-12-31T18:30:43.152Z,7.46
2018-12-31T18:33:10.572Z,7.40
2018-12-31T18:35:37.623Z,7.42
2018-12-31T18:38:04.639Z,7.41
2018-12-31T18:40:31.627Z,7.41
2018-12-31T18:42:58.753Z,7.42
2018-12-31T18:45:26.381Z,7.46
2018-12-31T18:47:53.548Z,7.49
2018-12-31T18:50:20.611Z,7.55
2018-12-31T18:52:47.632Z,7.60
2018-12-31T18:55:15.216Z,7.57
2018-12-31T18:57:42.719Z,7.56
2018-12-31T19:00:10.347Z,7.51
2018-12-31T19:02:37.410Z,7.50
2018-12-31T19:05:04.994Z,7.59
2018-12-31T19:07:32.439Z,7.60
2018-12-31T19:10:00.268Z,7.57
2018-12-31T19:12:27.749Z,7.54
2018-12-31T19:14:55.319Z,7.60
2018-12-31T19:17:23.044Z,7.57
2018-12-31T19:19:50.708Z,7.64
2018-12-31T19:22:18.294Z,7.69
2018-12-31T19:24:45.885Z,7.70
2018-12-31T19:27:14.924Z,7.69
2018-12-31T19:29:42.391Z,7.69
2018-12-31T19:32:10.005Z,7.70
2018-12-31T19:34:37.527Z,7.68
2018-12-31T19:37:05.054Z,7.68
2018-12-31T19:39:35.359Z,7.70
2018-12-31T19:42:02.868Z,7.73
2018-12-31T19:44:29.954Z,7.69
2018-12-31T19:46:57.051Z,7.69
2018-12-31T19:49:24.531Z,7.72
2018-12-31T19:51:52.181Z,7.71
2018-12-31T19:54:19.764Z,7.71
2018-12-31T19:56:47.431Z,7.73
2018-12-31T19:59:14.953Z,7.72
2018-12-31T20:01:43.453Z,7.70
2018-12-31T20:04:11.008Z,7.65
2018-12-31T20:06:38.490Z,7.70
2018-12-31T20:09:06.024Z,7.78
2018-12-31T20:11:34.781Z,7.80
2018-12-31T20:14:02.321Z,7.79
2018-12-31T20:16:29.837Z,7.76
2018-12-31T20:18:57.754Z,7.77
2018-12-31T20:21:25.290Z,7.80
2018-12-31T20:23:54.247Z,7.77
2018-12-31T20:26:22.368Z,7.71
2018-12-31T20:28:50.063Z,7.70
2018-12-31T20:31:18.136Z,7.70
2018-12-31T20:33:46.800Z,7.68
2018-12-31T20:36:14.483Z,7.78
2018-12-31T20:38:42.204Z,7.81
2018-12-31T20:41:10.582Z,7.78
2018-12-31T20:43:39.975Z,7.78
2018-12-31T20:46:07.484Z,7.77
2018-12-31T20:48:35.435Z,7.75
2018-12-31T20:51:02.997Z,7.76
2018-12-31T20:53:31.972Z,7.77
2018-12-31T20:55:59.541Z,7.73
2018-12-31T20:58:31.611Z,7.77
2018-12-31T21:01:03.906Z,7.68
2018-12-31T21:03:31.458Z,7.67
2018-12-31T21:06:03.183Z,7.68
2018-12-31T21:08:32.752Z,7.77
2018-12-31T21:11:02.032Z,7.85
2018-12-31T21:13:29.665Z,7.93
2018-12-31T21:15:58.173Z,8.00
2018-12-31T21:18:32.359Z,8.08
2018-12-31T21:21:02.379Z,8.10
2018-12-31T21:23:34.339Z,8.13
2018-12-31T21:26:03.158Z,8.12
2018-12-31T21:28:34.702Z,8.08
2018-12-31T21:31:06.654Z,8.08
2018-12-31T21:33:35.175Z,8.05
2018-12-31T21:36:06.465Z,8.07
2018-12-31T21:38:35.068Z,8.08
2018-12-31T21:41:04.252Z,8.12
2018-12-31T21:43:33.985Z,8.12
2018-12-31T21:46:02.224Z,8.08
2018-12-31T21:48:35.364Z,8.04
2018-12-31T21:51:04.009Z,8.04
2018-12-31T21:53:34.560Z,8.05
2018-12-31T21:56:03.696Z,8.07
2018-12-31T21:58:31.668Z,8.12
2018-12-31T22:00:59.799Z,8.12
2018-12-31T22:03:27.562Z,8.10
2018-12-31T22:05:55.355Z,8.14
2018-12-31T22:08:23.085Z,8.18
2018-12-31T22:10:52.169Z,8.22
2018-12-31T22:13:19.940Z,8.17
2018-12-31T22:15:47.539Z,8.14
2018-12-31T22:18:15.027Z,8.19
2018-12-31T22:20:42.489Z,8.18
2018-12-31T22:23:10.006Z,8.17
2018-12-31T22:25:37.576Z,8.15
2018-12-31T22:28:05.216Z,8.06
2018-12-31T22:30:32.724Z,7.88
2018-12-31T22:33:00.236Z,7.90
2018-12-31T22:35:28.068Z,8.04
2018-12-31T22:37:55.647Z,8.06
2018-12-31T22:40:22.700Z,8.03
2018-12-31T22:42:49.752Z,8.07
2018-12-31T22:45:17.400Z,8.10
2018-12-31T22:47:44.977Z,8.15
2018-12-31T22:50:12.685Z,8.19
2018-12-31T22:52:40.506Z,8.20
2018-12-31T22:55:08.005Z,8.22
2018-12-31T22:57:37.915Z,8.23
2018-12-31T23:00:05.847Z,8.19
2018-12-31T23:02:33.497Z,8.11
2018-12-31T23:05:01.165Z,8.05
2018-12-31T23:07:28.640Z,8.06
2018-12-31T23:09:56.386Z,8.10
2018-12-31T23:12:23.990Z,8.15
2018-12-31T23:14:51.689Z,8.14
2018-12-31T23:17:20.884Z,8.14
2018-12-31T23:19:49.665Z,8.13
2018-12-31T23:22:20.593Z,8.11
2018-12-31T23:24:53.183Z,8.13
2018-12-31T23:27:20.773Z,8.10
2018-12-31T23:29:48.290Z,8.13
2018-12-31T23:32:16.028Z,8.15
2018-12-31T23:34:43.515Z,8.13
2018-12-31T23:37:11.053Z,8.12
2018-12-31T23:39:38.842Z,8.12
2018-12-31T23:42:06.548Z,8.12
2018-12-31T23:44:34.237Z,8.14
2018-12-31T23:47:02.112Z,8.16
2018-12-31T23:49:29.654Z,8.24
2018-12-31T23:51:57.963Z,8.26
2018-12-31T23:54:25.443Z,8.23
2018-12-31T23:56:54.093Z,8.27
2018-12-31T23:59:21.566Z,8.31
